Time;durP1;ratioP1;P1;durP2;ratioP2;P2;SDS_P1;SDS_P2;PMS_P1;PMS_P2;Temp;Humidity;BMP_temperature;BMP_pressure;BME280_temperature;BME280_humidity;BME280_pressure;Samples;Min_cycle;Max_cycle;Signal;HPM_P1;HPM_P2
2023/04/24 00:01:31;;;;;;;1.00;1.00;;;11.10;99.90;;;;;;4997085;28;20042;-63
2023/04/24 00:03:59;;;;;;;2.25;1.13;;;11.10;99.90;;;;;;4994942;28;20038;-64
2023/04/24 00:06:32;;;;;;;1.20;1.10;;;11.10;99.90;;;;;;4996776;28;20046;-63
2023/04/24 00:09:02;;;;;;;1.05;0.93;;;11.10;99.90;;;;;;5017465;28;20518;-63
2023/04/24 00:11:28;;;;;;;1.00;1.00;;;11.10;99.90;;;;;;5014587;28;20141;-63
2023/04/24 00:13:53;;;;;;;1.63;1.20;;;11.10;99.90;;;;;;5014280;28;20400;-63
2023/04/24 00:16:19;;;;;;;1.23;1.13;;;11.10;99.90;;;;;;4991885;28;20057;-63
2023/04/24 00:18:45;;;;;;;1.50;1.40;;;11.00;99.90;;;;;;5014408;28;20065;-63
2023/04/24 00:21:11;;;;;;;2.88;1.60;;;11.00;99.90;;;;;;5013965;28;20034;-63
2023/04/24 00:23:36;;;;;;;2.00;1.50;;;11.00;99.90;;;;;;5014227;28;20050;-63
2023/04/24 00:26:02;;;;;;;1.90;1.55;;;11.00;99.90;;;;;;5018033;28;20111;-63
2023/04/24 00:28:28;;;;;;;2.72;1.55;;;10.90;99.90;;;;;;5015054;28;20041;-63
2023/04/24 00:30:54;;;;;;;2.20;1.70;;;10.90;99.90;;;;;;4996123;28;20076;-63
2023/04/24 00:33:20;;;;;;;1.80;1.65;;;10.90;99.90;;;;;;4996473;28;20069;-63
2023/04/24 00:35:45;;;;;;;2.85;2.30;;;10.90;99.90;;;;;;5013496;28;20038;-63
2023/04/24 00:38:11;;;;;;;2.22;2.03;;;10.80;99.90;;;;;;5014029;28;20045;-63
2023/04/24 00:40:37;;;;;;;3.45;2.30;;;10.80;99.90;;;;;;4996365;28;20034;-63
2023/04/24 00:43:02;;;;;;;2.53;2.33;;;10.70;99.90;;;;;;5013785;28;20085;-63
2023/04/24 00:45:28;;;;;;;4.40;2.70;;;10.70;99.90;;;;;;5013573;28;20503;-64
2023/04/24 00:47:54;;;;;;;2.85;2.45;;;10.70;99.90;;;;;;4996097;28;20104;-63
2023/04/24 00:50:21;;;;;;;4.68;3.00;;;10.70;99.90;;;;;;5013798;28;20042;-63
2023/04/24 00:52:46;;;;;;;4.20;3.05;;;10.70;99.90;;;;;;4996060;28;20046;-63
2023/04/24 00:55:12;;;;;;;4.10;3.00;;;10.70;99.90;;;;;;4995536;28;20041;-63
2023/04/24 00:57:38;;;;;;;3.92;3.30;;;10.70;99.90;;;;;;5012986;28;20073;-63
2023/04/24 01:00:11;;;;;;;4.25;3.38;;;10.70;99.90;;;;;;5028181;22;20132;-64
2023/04/24 01:02:44;;;;;;;3.85;3.00;;;10.70;99.90;;;;;;4990611;28;20050;-64
2023/04/24 01:05:14;;;;;;;3.67;2.78;;;10.70;99.90;;;;;;4993287;28;20430;-64
2023/04/24 01:07:43;;;;;;;3.83;3.00;;;10.70;99.90;;;;;;4976551;28;20066;-63
2023/04/24 01:10:10;;;;;;;3.35;2.72;;;10.60;99.90;;;;;;4994254;28;20053;-64
2023/04/24 01:12:36;;;;;;;11.13;3.10;;;10.60;99.90;;;;;;4978693;28;20053;-64
2023/04/24 01:15:03;;;;;;;3.63;3.05;;;10.60;99.90;;;;;;4975867;28;20033;-63
2023/04/24 01:17:29;;;;;;;3.83;3.33;;;10.60;99.90;;;;;;4993591;28;20050;-63
2023/04/24 01:19:56;;;;;;;3.45;3.15;;;10.60;99.90;;;;;;4993811;28;20117;-64
2023/04/24 01:22:22;;;;;;;4.25;3.47;;;10.60;99.90;;;;;;4994509;28;20049;-63
2023/04/24 01:24:48;;;;;;;4.07;3.67;;;10.60;99.90;;;;;;4971299;28;20412;-63
2023/04/24 01:27:14;;;;;;;3.65;3.28;;;10.50;99.90;;;;;;4971407;28;20043;-63
2023/04/24 01:29:40;;;;;;;3.95;3.50;;;10.50;99.90;;;;;;4993651;28;20507;-63
2023/04/24 01:32:06;;;;;;;4.57;3.30;;;10.40;99.90;;;;;;4993246;28;20046;-64
2023/04/24 01:34:34;;;;;;;4.05;3.65;;;10.40;99.90;;;;;;4993391;28;20046;-64
2023/04/24 01:37:00;;;;;;;3.78;3.33;;;10.40;99.90;;;;;;4993007;28;20038;-64
2023/04/24 01:39:28;;;;;;;3.78;3.38;;;10.30;99.90;;;;;;4994401;28;20727;-64
2023/04/24 01:41:55;;;;;;;3.88;3.40;;;10.30;99.90;;;;;;4992135;28;20038;-64
2023/04/24 01:44:21;;;;;;;3.50;3.20;;;10.30;99.90;;;;;;4989100;28;20038;-63
2023/04/24 01:46:47;;;;;;;5.00;3.20;;;10.20;99.90;;;;;;4975762;28;20045;-63
2023/04/24 01:49:13;;;;;;;3.55;3.13;;;10.20;99.90;;;;;;4971372;28;20046;-63
2023/04/24 01:51:38;;;;;;;3.13;2.83;;;10.20;99.90;;;;;;4976081;28;20042;-63
2023/04/24 01:54:05;;;;;;;3.38;3.05;;;10.20;99.90;;;;;;4996342;28;20407;-65
2023/04/24 01:56:33;;;;;;;3.20;2.90;;;10.10;99.90;;;;;;4996379;28;20049;-64
2023/04/24 01:59:00;;;;;;;3.80;3.40;;;10.10;99.90;;;;;;4991220;28;20038;-64
2023/04/24 02:01:25;;;;;;;3.28;2.75;;;10.10;99.90;;;;;;4997015;28;20081;-65
2023/04/24 02:03:51;;;;;;;3.88;3.47;;;10.10;99.90;;;;;;4992837;28;20084;-64
2023/04/24 02:06:16;;;;;;;5.03;3.33;;;10.00;99.90;;;;;;4992603;28;20042;-64
2023/04/24 02:08:42;;;;;;;3.58;3.10;;;10.00;99.90;;;;;;4991851;28;20400;-64
2023/04/24 02:11:11;;;;;;;5.18;3.17;;;10.00;99.90;;;;;;4994305;28;20042;-64
2023/04/24 02:13:36;;;;;;;4.30;3.05;;;10.00;99.90;;;;;;4989794;28;20119;-64
2023/04/24 02:16:02;;;;;;;3.53;3.00;;;10.00;99.90;;;;;;4974988;28;20053;-65
2023/04/24 02:18:27;;;;;;;3.85;3.10;;;10.00;99.90;;;;;;4975162;28;20042;-65
2023/04/24 02:20:53;;;;;;;3.60;2.92;;;10.00;99.90;;;;;;4992461;28;20157;-64
2023/04/24 02:23:19;;;;;;;3.40;2.92;;;10.00;99.90;;;;;;4994152;28;20050;-64
2023/04/24 02:25:45;;;;;;;5.22;2.97;;;10.00;99.90;;;;;;4974801;28;20045;-64
2023/04/24 02:28:11;;;;;;;3.47;3.10;;;10.00;99.90;;;;;;4991698;28;20393;-65
2023/04/24 02:30:36;;;;;;;4.32;3.15;;;10.00;99.90;;;;;;4992155;28;20042;-65
2023/04/24 02:33:03;;;;;;;4.75;3.33;;;10.00;99.90;;;;;;4997838;28;20046;-64
2023/04/24 02:35:28;;;;;;;5.68;3.55;;;10.00;99.90;;;;;;4992315;28;20432;-65
2023/04/24 02:37:54;;;;;;;4.60;3.70;;;10.00;99.90;;;;;;4994483;28;20038;-65
2023/04/24 02:40:19;;;;;;;4.40;3.65;;;10.00;99.90;;;;;;4997220;28;20046;-65
2023/04/24 02:42:45;;;;;;;5.32;4.18;;;10.00;99.90;;;;;;4991887;28;20038;-65
2023/04/24 02:45:10;;;;;;;6.18;4.60;;;10.00;99.90;;;;;;4991877;28;20042;-64
2023/04/24 02:47:36;;;;;;;5.43;4.65;;;9.90;99.90;;;;;;4992572;28;20065;-65
2023/04/24 02:50:02;;;;;;;7.20;4.53;;;9.90;99.90;;;;;;4992032;28;20037;-65
2023/04/24 02:52:28;;;;;;;5.47;4.60;;;10.00;99.90;;;;;;4994859;28;20117;-65
2023/04/24 02:54:54;;;;;;;7.43;4.82;;;9.90;99.90;;;;;;4991490;28;20149;-66
2023/04/24 02:57:19;;;;;;;6.45;4.85;;;9.90;99.90;;;;;;4974078;28;20092;-65
2023/04/24 02:59:45;;;;;;;5.88;4.38;;;9.90;99.90;;;;;;4996923;28;20034;-65
2023/04/24 03:02:10;;;;;;;5.88;4.43;;;9.90;99.90;;;;;;4973129;28;20046;-65
2023/04/24 03:04:36;;;;;;;5.45;4.47;;;9.90;99.90;;;;;;4995224;28;20129;-64
2023/04/24 03:07:02;;;;;;;5.78;4.70;;;9.90;99.90;;;;;;4980584;28;20097;-65
2023/04/24 03:09:27;;;;;;;5.25;4.40;;;9.90;99.90;;;;;;4991085;28;20030;-65
2023/04/24 03:11:53;;;;;;;5.45;4.18;;;9.90;99.90;;;;;;4975050;28;20087;-65
2023/04/24 03:14:19;;;;;;;4.13;3.45;;;9.90;99.90;;;;;;4992418;28;20528;-64
2023/04/24 03:16:45;;;;;;;4.53;3.40;;;9.90;99.90;;;;;;4991919;28;20036;-65
2023/04/24 03:19:13;;;;;;;4.40;3.28;;;9.90;99.90;;;;;;4991879;28;20381;-65
2023/04/24 03:21:40;;;;;;;3.55;2.85;;;9.90;99.90;;;;;;4973777;28;20500;-65
2023/04/24 03:24:09;;;;;;;2.85;2.55;;;9.90;99.90;;;;;;4973812;28;20125;-65
2023/04/24 03:26:35;;;;;;;2.95;2.35;;;9.80;99.90;;;;;;4970455;28;20485;-65
2023/04/24 03:29:01;;;;;;;2.17;1.98;;;9.80;99.90;;;;;;4991423;28;20041;-65
2023/04/24 03:31:26;;;;;;;2.25;1.80;;;9.80;99.90;;;;;;4975483;28;20286;-65
2023/04/24 03:33:52;;;;;;;2.40;2.00;;;9.80;99.90;;;;;;4974210;28;20404;-65
2023/04/24 03:36:19;;;;;;;2.60;1.80;;;9.80;99.90;;;;;;4991281;28;20085;-64
2023/04/24 03:38:45;;;;;;;1.92;1.60;;;9.80;99.90;;;;;;4990957;28;20072;-64
2023/04/24 03:41:11;;;;;;;2.03;1.70;;;9.80;99.90;;;;;;4997629;28;20121;-64
2023/04/24 03:43:37;;;;;;;1.50;1.40;;;9.80;99.90;;;;;;4991643;28;20073;-64
2023/04/24 03:46:03;;;;;;;2.08;1.55;;;9.80;99.90;;;;;;4996759;28;20039;-64
2023/04/24 03:48:29;;;;;;;1.63;1.52;;;9.80;99.90;;;;;;4981321;28;20040;-64
2023/04/24 03:50:55;;;;;;;1.33;1.15;;;9.70;99.90;;;;;;4995867;28;20484;-64
2023/04/24 03:53:21;;;;;;;0.73;0.70;;;9.80;99.90;;;;;;4990901;28;20046;-64
2023/04/24 03:55:46;;;;;;;1.05;0.68;;;9.80;99.90;;;;;;4990467;28;20065;-64
2023/04/24 03:58:14;;;;;;;0.57;0.57;;;9.70;99.90;;;;;;4973626;28;20034;-64
2023/04/24 04:00:40;;;;;;;0.90;0.90;;;9.70;99.90;;;;;;4975546;28;20490;-64
2023/04/24 04:03:06;;;;;;;3.50;1.27;;;9.70;99.90;;;;;;4972992;28;20077;-64
2023/04/24 04:05:31;;;;;;;1.90;1.70;;;9.60;99.90;;;;;;4983772;28;20073;-64
2023/04/24 04:07:57;;;;;;;4.55;2.30;;;9.70;99.90;;;;;;4997503;28;20038;-64
2023/04/24 04:10:22;;;;;;;3.50;2.33;;;9.70;99.90;;;;;;4999440;28;20041;-64
2023/04/24 04:12:48;;;;;;;4.03;2.40;;;9.70;99.90;;;;;;4974475;28;20153;-64
2023/04/24 04:15:14;;;;;;;3.25;2.20;;;9.70;99.90;;;;;;4967555;28;20050;-64
2023/04/24 04:17:39;;;;;;;3.20;2.20;;;9.70;99.90;;;;;;4990887;28;20114;-64
2023/04/24 04:20:09;;;;;;;3.20;2.45;;;9.70;99.90;;;;;;4990535;28;20043;-64
2023/04/24 04:22:34;;;;;;;4.82;2.70;;;9.60;99.90;;;;;;4989432;28;20050;-65
2023/04/24 04:25:00;;;;;;;3.72;2.67;;;9.60;99.90;;;;;;4988594;28;20042;-64
2023/04/24 04:27:26;;;;;;;3.30;2.33;;;9.60;99.90;;;;;;4973403;28;20042;-64
2023/04/24 04:29:52;;;;;;;3.92;2.30;;;9.70;99.90;;;;;;4990631;28;20121;-64
2023/04/24 04:32:18;;;;;;;3.20;2.05;;;9.60;99.90;;;;;;4996049;28;20597;-64
2023/04/24 04:34:45;;;;;;;2.85;2.10;;;9.60;99.90;;;;;;4994693;28;20104;-64
2023/04/24 04:37:12;;;;;;;3.60;2.30;;;9.60;99.90;;;;;;4993991;28;20122;-64
2023/04/24 04:39:38;;;;;;;3.20;2.38;;;9.60;99.90;;;;;;4976801;28;20440;-64
2023/04/24 04:42:03;;;;;;;2.70;2.00;;;9.50;99.90;;;;;;4980173;28;20100;-65
2023/04/24 04:44:30;;;;;;;3.83;2.65;;;9.50;99.90;;;;;;4977177;28;20096;-65
2023/04/24 04:46:56;;;;;;;3.70;1.90;;;9.50;99.90;;;;;;4994101;28;20039;-64
2023/04/24 04:49:23;;;;;;;3.03;2.00;;;9.50;99.90;;;;;;4988548;28;20049;-65
2023/04/24 04:51:50;;;;;;;2.85;1.80;;;9.50;99.90;;;;;;4988785;28;20045;-65
2023/04/24 04:54:16;;;;;;;2.40;1.80;;;9.50;99.90;;;;;;5002267;28;20049;-65
2023/04/24 04:56:42;;;;;;;2.80;1.80;;;9.50;99.90;;;;;;4996820;28;20038;-65
2023/04/24 04:59:07;;;;;;;2.83;1.85;;;9.40;99.90;;;;;;4993640;28;20034;-65
2023/04/24 05:01:33;;;;;;;2.47;1.70;;;9.50;99.90;;;;;;4993648;28;20097;-66
2023/04/24 05:03:58;;;;;;;2.67;1.90;;;9.50;99.90;;;;;;4993528;28;20053;-65
2023/04/24 05:06:25;;;;;;;1.77;1.45;;;9.50;99.90;;;;;;5000358;28;20087;-65
2023/04/24 05:08:51;;;;;;;2.45;1.70;;;9.50;99.90;;;;;;4994701;28;20046;-65
2023/04/24 05:11:16;;;;;;;2.25;1.63;;;9.40;99.90;;;;;;4979943;28;20061;-65
2023/04/24 05:13:42;;;;;;;2.75;1.50;;;9.40;99.90;;;;;;4994113;28;20416;-65
2023/04/24 05:16:07;;;;;;;3.55;1.90;;;9.40;99.90;;;;;;4995130;28;20106;-65
2023/04/24 05:18:33;;;;;;;3.30;2.10;;;9.50;99.90;;;;;;4997353;28;20058;-65
2023/04/24 05:20:59;;;;;;;5.43;2.40;;;9.60;99.90;;;;;;4994183;28;20034;-65
2023/04/24 05:23:24;;;;;;;3.20;2.15;;;9.60;99.90;;;;;;4999067;28;20030;-66
2023/04/24 05:25:50;;;;;;;3.30;2.28;;;9.70;99.90;;;;;;4976941;28;20073;-65
2023/04/24 05:28:15;;;;;;;3.42;2.30;;;9.70;99.90;;;;;;4962962;28;20096;-65
2023/04/24 05:30:41;;;;;;;2.70;2.03;;;9.70;99.90;;;;;;4993640;28;20050;-65
2023/04/24 05:33:08;;;;;;;2.45;1.77;;;9.70;99.90;;;;;;4995253;28;20042;-65
2023/04/24 05:35:34;;;;;;;5.40;3.38;;;9.80;99.90;;;;;;4993089;28;20038;-65
2023/04/24 05:37:59;;;;;;;5.32;2.95;;;9.80;99.90;;;;;;4993102;28;20373;-66
2023/04/24 05:40:25;;;;;;;3.65;2.67;;;9.80;99.90;;;;;;4997049;28;20085;-64
2023/04/24 05:42:50;;;;;;;6.50;2.70;;;9.90;99.90;;;;;;4993027;28;20226;-65
2023/04/24 05:45:16;;;;;;;4.10;2.60;;;9.90;99.90;;;;;;4975134;28;20042;-66
2023/04/24 05:47:45;;;;;;;3.75;2.40;;;9.90;99.90;;;;;;4975902;28;20378;-66
2023/04/24 05:50:11;;;;;;;3.30;2.30;;;10.00;99.90;;;;;;4977528;28;20050;-67
2023/04/24 05:52:37;;;;;;;4.53;2.88;;;10.00;99.90;;;;;;4992775;28;20390;-65
2023/04/24 05:55:03;;;;;;;5.45;3.17;;;10.00;99.90;;;;;;4992365;28;20051;-65
2023/04/24 05:57:28;;;;;;;7.10;4.43;;;10.00;99.90;;;;;;4989167;28;20042;-65
2023/04/24 05:59:54;;;;;;;9.30;4.75;;;10.00;99.90;;;;;;4993549;28;20038;-65
2023/04/24 06:02:19;;;;;;;8.48;5.55;;;10.00;99.90;;;;;;4992789;28;20043;-65
2023/04/24 06:04:45;;;;;;;8.23;5.63;;;10.00;99.90;;;;;;4993363;28;20065;-65
2023/04/24 06:07:11;;;;;;;9.02;5.95;;;10.00;99.90;;;;;;4975112;28;20405;-65
2023/04/24 06:09:36;;;;;;;7.40;4.93;;;10.00;99.90;;;;;;4992990;28;20389;-65
2023/04/24 06:12:02;;;;;;;8.55;5.55;;;10.00;99.90;;;;;;4981223;28;20053;-66
2023/04/24 06:14:28;;;;;;;8.70;5.13;;;10.00;99.90;;;;;;4992210;28;20129;-65
2023/04/24 06:16:53;;;;;;;7.68;4.70;;;10.00;99.90;;;;;;4992379;28;20134;-65
2023/04/24 06:19:19;;;;;;;8.77;4.60;;;10.00;99.90;;;;;;4992702;28;20393;-66
2023/04/24 06:21:45;;;;;;;8.20;4.72;;;10.00;99.90;;;;;;4995747;28;20058;-66
2023/04/24 06:24:10;;;;;;;7.68;4.43;;;10.00;99.90;;;;;;4975477;28;20038;-66
2023/04/24 06:26:36;;;;;;;8.48;4.57;;;10.00;99.90;;;;;;4991983;28;20181;-66
2023/04/24 06:29:01;;;;;;;9.68;4.57;;;10.00;99.90;;;;;;4983224;28;20069;-65
2023/04/24 06:31:27;;;;;;;8.00;4.10;;;10.00;99.90;;;;;;4972323;28;20042;-66
2023/04/24 06:33:53;;;;;;;7.63;4.40;;;10.00;99.90;;;;;;4992717;28;20401;-66
2023/04/24 06:36:18;;;;;;;5.28;3.78;;;10.00;99.90;;;;;;4991828;28;20069;-66
2023/04/24 06:38:44;;;;;;;5.63;3.65;;;10.00;99.90;;;;;;4992089;28;20501;-66
2023/04/24 06:41:10;;;;;;;5.47;3.63;;;10.00;99.90;;;;;;4986191;28;20082;-66
2023/04/24 06:43:36;;;;;;;4.80;3.42;;;9.90;99.90;;;;;;4991630;28;20500;-65
2023/04/24 06:46:03;;;;;;;6.47;3.90;;;9.90;99.90;;;;;;4986736;28;20073;-66
2023/04/24 06:48:29;;;;;;;5.95;3.90;;;9.90;99.90;;;;;;4991635;28;20042;-65
2023/04/24 06:50:55;;;;;;;6.55;3.63;;;9.90;99.90;;;;;;4979730;28;20042;-66
2023/04/24 06:53:20;;;;;;;6.80;3.72;;;10.00;99.90;;;;;;4974861;28;20481;-66
2023/04/24 06:55:46;;;;;;;6.88;3.53;;;10.00;99.90;;;;;;4991687;28;20491;-66
2023/04/24 06:58:12;;;;;;;6.55;4.18;;;10.00;99.90;;;;;;4986676;28;20061;-66
2023/04/24 07:00:37;;;;;;;5.93;3.88;;;10.00;99.90;;;;;;5016830;22;20060;-75
2023/04/24 07:03:05;;;;;;;7.50;3.72;;;10.00;99.90;;;;;;4975365;28;20042;-74
2023/04/24 07:05:31;;;;;;;6.97;3.90;;;10.00;99.90;;;;;;4974144;28;20050;-74
2023/04/24 07:07:58;;;;;;;7.13;4.25;;;10.00;99.90;;;;;;4976695;28;20092;-74
2023/04/24 07:10:24;;;;;;;7.85;4.85;;;10.00;99.90;;;;;;4977637;28;20042;-74
2023/04/24 07:12:50;;;;;;;9.52;5.10;;;10.00;99.90;;;;;;4976570;28;20046;-75
2023/04/24 07:15:16;;;;;;;8.82;4.95;;;10.00;99.90;;;;;;4979547;28;20124;-75
2023/04/24 07:17:44;;;;;;;9.90;4.45;;;10.00;99.90;;;;;;4981277;28;20038;-74
2023/04/24 07:20:10;;;;;;;8.00;4.85;;;10.00;99.90;;;;;;4975301;28;20100;-75
2023/04/24 07:22:37;;;;;;;8.27;4.97;;;10.00;99.90;;;;;;4997861;28;20045;-75
2023/04/24 07:25:03;;;;;;;9.35;5.07;;;10.00;99.90;;;;;;4974096;28;20053;-75
2023/04/24 07:27:28;;;;;;;7.75;5.30;;;10.00;99.90;;;;;;4979256;28;20409;-74
2023/04/24 07:29:54;;;;;;;11.20;5.20;;;10.00;99.90;;;;;;4982148;28;20042;-75
2023/04/24 07:32:19;;;;;;;8.48;4.80;;;10.00;99.90;;;;;;4973937;28;20038;-74
2023/04/24 07:34:45;;;;;;;8.00;4.65;;;10.00;99.90;;;;;;4980956;28;20041;-75
2023/04/24 07:37:11;;;;;;;9.95;4.63;;;10.00;99.90;;;;;;4973669;28;20101;-74
2023/04/24 07:39:36;;;;;;;6.95;4.40;;;10.00;99.90;;;;;;4997151;28;20038;-74
2023/04/24 07:42:02;;;;;;;7.70;4.25;;;10.00;99.90;;;;;;4974107;28;20056;-74
2023/04/24 07:44:28;;;;;;;10.73;4.70;;;10.00;99.90;;;;;;4969512;28;20042;-75
2023/04/24 07:46:53;;;;;;;7.28;4.30;;;10.70;99.90;;;;;;4989652;28;20038;-75
2023/04/24 07:49:19;;;;;;;7.88;4.10;;;10.00;99.90;;;;;;4972062;28;20046;-75
2023/04/24 07:51:45;;;;;;;7.30;3.92;;;10.00;99.90;;;;;;4973885;28;20486;-74
2023/04/24 07:54:10;;;;;;;5.95;3.28;;;10.00;99.90;;;;;;4973390;28;20035;-74
2023/04/24 07:56:38;;;;;;;6.32;3.25;;;10.00;99.90;;;;;;4968621;28;20130;-74
2023/04/24 07:59:04;;;;;;;6.05;3.58;;;10.00;99.90;;;;;;4973964;28;20482;-75
2023/04/24 08:01:30;;;;;;;6.47;3.03;;;10.00;99.90;;;;;;4977891;28;20034;-74
2023/04/24 08:03:56;;;;;;;7.47;3.03;;;10.00;99.90;;;;;;4973867;28;20462;-75
2023/04/24 08:06:22;;;;;;;6.00;3.10;;;10.00;99.90;;;;;;4974513;28;20757;-74
2023/04/24 08:08:47;;;;;;;8.05;3.78;;;10.00;99.90;;;;;;4981993;28;20037;-74
2023/04/24 08:11:13;;;;;;;10.55;4.30;;;10.00;99.90;;;;;;4995059;28;20048;-75
2023/04/24 08:13:38;;;;;;;11.35;5.47;;;10.00;99.90;;;;;;4977784;28;20418;-74
2023/04/24 08:16:04;;;;;;;12.75;7.40;;;10.00;99.90;;;;;;4977115;28;20482;-74
2023/04/24 08:18:30;;;;;;;13.88;8.15;;;9.90;99.90;;;;;;4977739;28;20053;-74
2023/04/24 08:20:56;;;;;;;16.98;10.10;;;9.90;99.90;;;;;;4977703;28;20038;-74
2023/04/24 08:23:21;;;;;;;17.98;9.05;;;9.90;99.90;;;;;;4958399;28;20043;-75
2023/04/24 08:25:48;;;;;;;18.90;10.13;;;9.80;99.90;;;;;;4993545;28;20521;-75
2023/04/24 08:28:19;;;;;;;17.58;10.32;;;9.80;99.90;;;;;;4977163;28;20104;-74
2023/04/24 08:30:45;;;;;;;19.70;10.47;;;9.80;99.90;;;;;;4977303;28;20498;-74
2023/04/24 08:33:11;;;;;;;20.45;10.30;;;9.80;99.90;;;;;;4997145;28;20309;-75
2023/04/24 08:35:36;;;;;;;21.35;10.80;;;9.80;99.90;;;;;;4960865;28;20140;-74
2023/04/24 08:38:02;;;;;;;19.25;10.60;;;9.80;99.90;;;;;;4977344;28;20439;-75
2023/04/24 08:40:29;;;;;;;21.52;10.98;;;9.80;99.90;;;;;;4990926;28;20419;-75
2023/04/24 08:42:58;;;;;;;18.27;11.50;;;9.70;99.90;;;;;;4977280;28;20042;-75
2023/04/24 08:45:24;;;;;;;24.35;12.15;;;9.80;99.90;;;;;;4981527;28;20045;-74
2023/04/24 08:47:52;;;;;;;20.88;12.80;;;9.70;99.90;;;;;;4977929;28;20034;-74
2023/04/24 08:50:17;;;;;;;25.88;13.35;;;9.70;99.90;;;;;;4981804;28;20437;-75
2023/04/24 08:52:43;;;;;;;24.40;14.00;;;9.70;99.90;;;;;;4978713;28;20046;-74
2023/04/24 08:55:09;;;;;;;29.23;14.27;;;9.70;99.90;;;;;;4976816;28;20050;-74
2023/04/24 08:57:35;;;;;;;27.35;15.00;;;9.60;99.90;;;;;;4977198;28;20042;-75
2023/04/24 09:00:01;;;;;;;24.23;13.75;;;9.60;99.90;;;;;;4993929;28;20536;-75
2023/04/24 09:02:28;;;;;;;22.73;13.73;;;9.60;99.90;;;;;;4981290;28;20050;-74
2023/04/24 09:04:56;;;;;;;28.85;14.25;;;9.50;99.90;;;;;;4977199;28;20045;-73
2023/04/24 09:07:24;;;;;;;24.58;12.85;;;9.50;99.90;;;;;;4976790;28;20037;-74
2023/04/24 09:09:50;;;;;;;22.23;12.60;;;9.50;99.90;;;;;;4982117;28;20052;-74
2023/04/24 09:12:17;;;;;;;23.20;13.18;;;9.50;99.90;;;;;;4977063;28;20057;-74
2023/04/24 09:14:44;;;;;;;20.20;13.10;;;9.50;99.90;;;;;;5001440;28;20041;-75
2023/04/24 09:17:11;;;;;;;23.58;12.73;;;9.50;99.90;;;;;;4993752;28;20049;-74
2023/04/24 09:19:36;;;;;;;19.48;11.98;;;9.50;99.90;;;;;;4977794;28;20042;-75
2023/04/24 09:22:06;;;;;;;22.33;12.25;;;9.50;99.90;;;;;;4976551;28;20045;-74
2023/04/24 09:24:33;;;;;;;18.60;12.10;;;9.50;99.90;;;;;;4976131;28;20058;-74
2023/04/24 09:27:01;;;;;;;21.83;12.05;;;9.50;99.90;;;;;;4976216;28;20050;-75
2023/04/24 09:29:27;;;;;;;20.13;11.52;;;9.50;99.90;;;;;;4993799;28;20041;-75
2023/04/24 09:31:53;;;;;;;17.15;10.20;;;9.50;99.90;;;;;;4959670;28;20038;-75
2023/04/24 09:34:23;;;;;;;21.25;10.63;;;9.50;99.90;;;;;;4976345;28;20042;-74
2023/04/24 09:36:49;;;;;;;17.65;10.27;;;9.50;99.90;;;;;;4975586;28;20038;-75
2023/04/24 09:39:16;;;;;;;15.82;10.38;;;9.60;99.90;;;;;;4960237;28;20517;-75
2023/04/24 09:41:50;;;;;;;16.65;9.65;;;9.60;99.90;;;;;;4976027;28;20042;-75
2023/04/24 09:44:20;;;;;;;16.25;9.60;;;9.60;99.90;;;;;;4993487;28;20046;-75
2023/04/24 09:46:50;;;;;;;15.15;8.95;;;9.60;99.90;;;;;;4981883;28;20042;-75
2023/04/24 09:49:20;;;;;;;18.48;9.10;;;9.70;99.90;;;;;;4977000;28;20050;-75
2023/04/24 09:51:45;;;;;;;14.73;8.60;;;9.70;99.90;;;;;;4976090;28;20379;-75
2023/04/24 09:54:20;;;;;;;12.82;8.55;;;9.80;99.90;;;;;;4975905;28;20053;-75
2023/04/24 09:56:49;;;;;;;14.80;8.10;;;9.80;99.90;;;;;;4971717;28;20049;-75
2023/04/24 09:59:16;;;;;;;14.30;7.75;;;9.90;99.90;;;;;;4981534;28;20057;-75
2023/04/24 10:01:44;;;;;;;13.77;7.07;;;9.90;99.90;;;;;;4992900;28;20536;-75
2023/04/24 10:04:17;;;;;;;13.68;6.55;;;9.90;99.90;;;;;;4980441;28;20053;-75
2023/04/24 10:06:43;;;;;;;15.00;6.45;;;9.80;99.90;;;;;;4978802;28;20056;-75
2023/04/24 10:09:11;;;;;;;13.07;6.22;;;9.80;99.90;;;;;;4977713;28;20501;-75
2023/04/24 10:11:37;;;;;;;15.95;6.75;;;9.80;99.90;;;;;;4977124;28;20050;-75
2023/04/24 10:14:04;;;;;;;19.20;6.35;;;9.80;99.90;;;;;;4979238;28;20395;-75
2023/04/24 10:16:31;;;;;;;15.20;4.82;;;9.70;99.90;;;;;;4974728;28;20057;-75
2023/04/24 10:19:00;;;;;;;13.13;4.28;;;9.60;99.90;;;;;;4995417;28;20034;-75
2023/04/24 10:21:26;;;;;;;12.50;4.25;;;9.60;99.90;;;;;;4979293;28;20053;-74
2023/04/24 10:23:53;;;;;;;9.70;3.90;;;9.50;99.90;;;;;;4979454;28;20038;-74
2023/04/24 10:26:20;;;;;;;12.60;3.83;;;9.40;99.90;;;;;;4974903;28;20053;-74
2023/04/24 10:28:46;;;;;;;8.32;3.58;;;9.30;99.90;;;;;;4991731;28;20031;-74
2023/04/24 10:31:13;;;;;;;11.43;3.92;;;9.30;99.90;;;;;;4981123;28;20061;-74
2023/04/24 10:33:43;;;;;;;7.72;3.67;;;9.20;99.90;;;;;;4975775;28;20046;-74
2023/04/24 10:36:14;;;;;;;12.27;3.72;;;9.20;99.90;;;;;;4974894;28;20058;-75
2023/04/24 10:38:41;;;;;;;9.05;3.67;;;9.20;99.90;;;;;;4974784;28;20038;-74
2023/04/24 10:41:20;;;;;;;11.55;3.80;;;9.20;99.90;;;;;;4980097;28;20050;-74
2023/04/24 10:43:48;;;;;;;13.05;3.55;;;9.20;99.90;;;;;;4974955;28;20138;-74
2023/04/24 10:46:21;;;;;;;10.40;3.33;;;9.20;99.90;;;;;;4991679;28;20053;-74
2023/04/24 10:48:54;;;;;;;13.32;3.72;;;9.30;99.90;;;;;;4975545;28;20371;-74
2023/04/24 10:51:22;;;;;;;11.93;3.83;;;9.30;99.90;;;;;;4975045;28;20042;-74
2023/04/24 10:53:50;;;;;;;12.50;3.67;;;9.30;99.90;;;;;;4991885;28;20550;-74
2023/04/24 10:56:16;;;;;;;11.40;3.55;;;9.30;99.90;;;;;;4976371;28;20050;-74
2023/04/24 10:58:48;;;;;;;14.48;3.97;;;9.40;99.90;;;;;;4974174;28;20098;-74
2023/04/24 11:01:31;;;;;;;11.13;3.30;;;9.50;99.90;;;;;;5006821;28;20046;-75
2023/04/24 11:04:02;;;;;;;9.93;3.00;;;9.50;99.90;;;;;;4974660;28;20339;-75
2023/04/24 11:06:35;;;;;;;9.80;3.45;;;9.60;99.90;;;;;;4974507;28;20117;-75
2023/04/24 11:09:07;;;;;;;10.88;3.10;;;9.70;99.90;;;;;;4974643;28;20031;-75
2023/04/24 11:11:33;;;;;;;11.52;2.97;;;9.70;99.90;;;;;;4974266;28;20042;-76
2023/04/24 11:13:58;;;;;;;13.00;2.80;;;9.70;99.90;;;;;;4970759;28;20050;-76
2023/04/24 11:16:34;;;;;;;10.18;2.65;;;9.80;99.90;;;;;;4974510;28;20041;-76
2023/04/24 11:19:28;;;;;;;9.30;3.05;;;9.80;99.90;;;;;;4967105;28;20100;-76
2023/04/24 11:22:02;;;;;;;9.68;2.70;;;9.90;99.90;;;;;;4972414;28;20125;-76
2023/04/24 11:24:50;;;;;;;12.85;2.83;;;9.80;99.90;;;;;;4982970;28;20471;-76
2023/04/24 11:27:22;;;;;;;9.80;2.50;;;9.80;99.90;;;;;;4974465;28;20042;-76
2023/04/24 11:29:50;;;;;;;7.50;2.42;;;9.80;99.90;;;;;;4973685;28;20066;-76
2023/04/24 11:32:23;;;;;;;6.60;2.25;;;9.80;99.90;;;;;;4974131;28;20414;-75
2023/04/24 11:34:50;;;;;;;9.25;2.20;;;9.70;99.90;;;;;;4974305;28;20054;-75
2023/04/24 11:37:16;;;;;;;6.03;2.33;;;9.70;99.90;;;;;;4973509;28;20137;-75
2023/04/24 11:39:42;;;;;;;6.95;2.20;;;9.70;99.90;;;;;;4975963;28;20038;-75
2023/04/24 11:42:09;;;;;;;7.95;2.60;;;9.70;99.90;;;;;;4974807;28;20510;-75
2023/04/24 11:44:37;;;;;;;8.68;2.22;;;9.70;99.90;;;;;;4973743;28;20407;-75
2023/04/24 11:47:09;;;;;;;7.78;2.38;;;9.70;99.90;;;;;;4975124;28;20046;-75
2023/04/24 11:49:38;;;;;;;9.68;2.50;;;9.80;99.90;;;;;;4972511;28;20101;-75
2023/04/24 11:52:04;;;;;;;8.30;2.65;;;9.80;99.90;;;;;;4976925;28;20065;-75
2023/04/24 11:54:30;;;;;;;7.57;2.30;;;9.80;99.90;;;;;;4975732;28;20038;-75
2023/04/24 11:56:56;;;;;;;7.32;2.70;;;9.70;99.90;;;;;;4990821;28;20033;-75
2023/04/24 11:59:22;;;;;;;9.93;2.35;;;9.60;99.90;;;;;;4991282;28;20049;-75
2023/04/24 12:01:49;;;;;;;8.02;2.47;;;9.60;99.90;;;;;;4974072;28;20426;-75
2023/04/24 12:04:16;;;;;;;8.13;2.28;;;9.70;99.90;;;;;;4969796;28;20426;-75
2023/04/24 12:07:02;;;;;;;16.30;2.70;;;9.70;99.90;;;;;;4973485;28;20054;-75
2023/04/24 12:09:27;;;;;;;7.50;2.92;;;9.80;99.90;;;;;;4971549;28;20042;-74
2023/04/24 12:11:59;;;;;;;3.55;2.20;;;9.80;99.90;;;;;;4973052;28;20599;-75
2023/04/24 12:14:25;;;;;;;6.30;1.65;;;9.80;99.90;;;;;;4968191;28;20050;-74
2023/04/24 12:16:51;;;;;;;7.55;2.13;;;9.80;99.90;;;;;;4972683;28;20042;-74
2023/04/24 12:19:23;;;;;;;7.95;1.92;;;9.80;99.90;;;;;;4974029;28;20046;-74
2023/04/24 12:22:06;;;;;;;6.03;1.98;;;9.90;99.90;;;;;;4989191;28;20096;-74
2023/04/24 12:24:31;;;;;;;;;;;9.90;99.90;;;;;;4978009;28;20042;-73
2023/04/24 12:26:58;;;;;;;5.28;1.58;;;9.90;99.90;;;;;;4991078;28;19977;-74
2023/04/24 12:29:24;;;;;;;4.75;1.60;;;10.00;99.90;;;;;;4991162;28;20069;-74
2023/04/24 12:31:53;;;;;;;4.00;1.20;;;9.90;99.90;;;;;;4995262;28;20441;-74
2023/04/24 12:34:23;;;;;;;8.10;1.40;;;10.60;99.90;;;;;;4973864;28;20117;-74
2023/04/24 12:36:49;;;;;;;6.97;2.22;;;9.70;99.90;;;;;;4972774;28;20070;-74
2023/04/24 12:39:19;;;;;;;5.40;1.00;;;9.60;99.90;;;;;;4991292;28;20470;-74
2023/04/24 12:41:56;;;;;;;2.85;1.13;;;9.60;99.90;;;;;;4990529;28;20096;-74
2023/04/24 12:44:29;;;;;;;3.10;1.10;;;9.50;99.90;;;;;;4973756;28;20046;-74
2023/04/24 12:46:55;;;;;;;2.05;1.10;;;9.50;99.90;;;;;;4972862;28;20038;-74
2023/04/24 12:49:20;;;;;;;4.40;1.40;;;9.60;99.90;;;;;;4973290;28;20402;-74